Terminal Aerodrome Forecast
Issued by NWS

Home | Current Version | Previous Version | Text Only | Print | Product List | Glossary On
Versions: 1 2 3 4 5 6 7 8 9 10 11 12 13 14 15 16 17 18 19 20 21 22 23 24 25 26 27 28 29 30 31 32 33 34
000
FTUS46 KPQR 172327
TAFONP
TAF
KONP 172327Z 1800/1824 24017G25KT 4SM -SHRA SCT010 BKN020 OVC025
     FM180300 25013G21KT P6SM -SHRA OVC035
     FM181500 24019G27KT 4SM -SHRA OVC015
     FM181800 24024G32KT 6SM -RA OVC015
     FM182100 27023G31KT 2SM -RA BR OVC015=

USA.gov is the U.S. government's official web portal to all federal, state and local government web resources and services.